Guanaja, Honduras
Current Conditions -  °F | °C
As of 11:00 AM on Wednesday 26 Nov 2014 (Local Time) from MHRO Reporting Station
Broken Clouds Broken Clouds  
Wind Chill: 27°   Ceiling: 2000
Heat Index: 30°   Visibility: 6mi
Dew Point: 24°   Wind: 14mph
Humidity: 84%   Direction: 300°WNW
Pressure: 30.03"   Gusts: NA
Location:  16.43°N, 85.88°W
Report Text: MHRO 261700Z 30012KT 9999 BKN020TCU BKN070 27/24 Q1017 A3003 NOSIG
Loading
Personal Weather Stations






























Interactive Weather Map New forecast layout! Learn more

10-Day Weather Forecast

Advertisements
Track Severe Weather on mobile